Time;durP1;ratioP1;P1;durP2;ratioP2;P2;SDS_P1;SDS_P2;PMS_P1;PMS_P2;Temp;Humidity;BMP_temperature;BMP_pressure;BME280_temperature;BME280_humidity;BME280_pressure;Samples;Min_cycle;Max_cycle;Signal;HPM_P1;HPM_P2
2021/09/21 00:01:15;;;;;;;4.65;3.60;;;;;;;8.75;81.13;100254.08;1768660;79;21070;-70
2021/09/21 00:03:42;;;;;;;4.65;3.52;;;;;;;8.74;81.38;100256.48;1770033;79;21011;-70
2021/09/21 00:06:09;;;;;;;4.55;3.45;;;;;;;8.72;81.46;100259.41;1775682;79;21088;-71
2021/09/21 00:08:42;;;;;;;4.20;3.20;;;;;;;8.72;81.69;100258.58;1762706;80;21528;-70
2021/09/21 00:11:15;;;;;;;4.40;3.47;;;;;;;8.72;81.87;100260.73;1768989;80;20943;-68
2021/09/21 00:13:43;;;;;;;3.98;3.20;;;;;;;8.69;81.85;100262.05;1777831;79;20966;-68
2021/09/21 00:16:11;;;;;;;4.05;3.30;;;;;;;8.68;81.88;100260.95;1768718;80;21325;-68
2021/09/21 00:18:38;;;;;;;3.92;3.02;;;;;;;8.64;81.92;100259.84;1768423;79;21715;-69
2021/09/21 00:21:06;;;;;;;5.05;3.35;;;;;;;8.57;81.77;100263.23;1773364;79;21040;-69
2021/09/21 00:23:33;;;;;;;3.70;3.15;;;;;;;8.53;82.07;100267.47;1785955;79;21054;-68
2021/09/21 00:26:00;;;;;;;4.33;3.50;;;;;;;8.51;81.97;100270.36;1777054;79;21619;-68
2021/09/21 00:28:27;;;;;;;3.98;3.25;;;;;;;8.49;82.11;100263.17;1768916;80;21587;-69
2021/09/21 00:30:54;;;;;;;4.42;3.33;;;;;;;8.46;82.20;100262.34;1759177;80;21576;-68
2021/09/21 00:33:23;;;;;;;3.77;2.80;;;;;;;8.45;82.06;100264.17;1773702;80;21535;-70
2021/09/21 00:35:51;;;;;;;3.85;2.92;;;;;;;8.43;82.08;100273.48;1779631;80;21541;-70
2021/09/21 00:38:20;;;;;;;3.65;2.95;;;;;;;8.40;81.84;100276.11;1763843;79;21129;-71
2021/09/21 00:40:47;;;;;;;5.25;2.87;;;;;;;8.41;82.03;100275.58;1768501;79;21060;-70
2021/09/21 00:43:21;;;;;;;5.50;2.90;;;;;;;8.39;81.72;100268.36;1810812;79;21069;-70
2021/09/21 00:45:52;;;;;;;4.45;2.77;;;;;;;8.35;81.66;100277.87;1769536;79;21493;-69
2021/09/21 00:48:23;;;;;;;4.47;2.80;;;;;;;8.32;81.89;100271.70;1773882;79;21007;-69
2021/09/21 00:50:53;;;;;;;4.92;2.75;;;;;;;8.31;81.84;100278.89;1742891;80;21430;-69
2021/09/21 00:53:24;;;;;;;3.50;2.60;;;;;;;8.31;81.42;100281.55;1769740;79;21581;-68
2021/09/21 00:55:58;;;;;;;4.37;2.70;;;;;;;8.32;81.24;100275.70;1776530;80;20971;-69
2021/09/21 00:58:33;;;;;;;3.42;2.55;;;;;;;8.32;81.09;100275.70;1756323;79;21588;-69
2021/09/21 01:01:08;;;;;;;4.03;2.33;;;;;;;8.29;81.37;100276.19;1775255;79;21038;-69
2021/09/21 01:03:40;;;;;;;3.83;2.40;;;;;;;8.32;81.61;100281.82;1746351;80;21038;-68
2021/09/21 01:06:08;;;;;;;4.60;2.87;;;;;;;8.33;81.59;100279.98;1720033;80;21053;-69
2021/09/21 01:08:35;;;;;;;2.98;2.30;;;;;;;8.23;81.13;100282.80;1774837;79;21163;-69
2021/09/21 01:11:03;;;;;;;3.92;2.55;;;;;;;8.17;81.24;100287.78;1727392;80;21030;-70
2021/09/21 01:13:34;;;;;;;3.47;2.42;;;;;;;8.15;81.42;100289.88;1776864;80;22177;-69
2021/09/21 01:16:01;;;;;;;3.65;2.45;;;;;;;8.14;81.48;100288.27;1779271;79;21043;-70
2021/09/21 01:18:37;;;;;;;3.98;2.52;;;;;;;8.14;81.40;100290.12;1783635;80;21502;-70
2021/09/21 01:21:10;;;;;;;5.22;2.40;;;;;;;8.15;81.61;100287.21;1778748;79;21026;-70
2021/09/21 01:24:00;;;;;;;4.85;2.87;;;;;;;8.15;81.44;100283.22;1769628;80;21039;-69
2021/09/21 01:26:33;;;;;;;4.25;2.50;;;;;;;8.15;81.35;100287.21;1779854;79;21102;-68
2021/09/21 01:29:05;;;;;;;3.75;2.40;;;;;;;8.15;81.08;100293.86;1780702;79;21026;-68
2021/09/21 01:31:36;;;;;;;3.45;2.47;;;;;;;8.14;81.14;100292.27;1772155;80;20990;-69
2021/09/21 01:34:09;;;;;;;4.10;2.50;;;;;;;8.16;81.54;100287.51;1788549;80;21554;-69
2021/09/21 01:36:42;;;;;;;3.50;2.33;;;;;;;8.19;81.23;100292.84;1769098;80;20982;-69
2021/09/21 01:39:11;;;;;;;3.85;2.35;;;;;;;8.15;81.02;100295.19;1780536;79;20971;-69
2021/09/21 01:41:40;;;;;;;5.28;2.30;;;;;;;8.13;81.17;100301.30;1775054;80;21439;-68
2021/09/21 01:44:15;;;;;;;3.45;2.42;;;;;;;8.10;81.36;100297.80;1774591;80;21066;-69
2021/09/21 01:46:58;;;;;;;4.37;2.70;;;;;;;8.09;81.27;100297.50;1769686;79;21128;-69
2021/09/21 01:49:45;;;;;;;3.20;2.33;;;;;;;8.12;81.31;100294.88;1774356;79;20999;-69
2021/09/21 01:52:20;;;;;;;6.00;3.05;;;;;;;8.09;81.28;100295.38;1765755;79;21081;-69
2021/09/21 01:55:01;;;;;;;3.58;2.20;;;;;;;8.07;81.13;100294.84;1750515;79;21070;-69
2021/09/21 02:00:22;;;;;;;3.55;2.52;;;;;;;8.09;81.24;100302.83;1777837;79;21751;-69
2021/09/21 02:02:56;;;;;;;3.98;2.20;;;;;;;8.10;81.34;100304.45;1766326;79;21494;-69
2021/09/21 02:11:18;;;;;;;3.60;2.67;;;;;;;8.05;81.41;100296.39;1780351;79;21022;-69
2021/09/21 02:13:49;;;;;;;5.72;2.95;;;;;;;8.02;81.39;100300.88;1760060;79;27328;-68
2021/09/21 02:16:22;;;;;;;4.17;2.60;;;;;;;7.98;81.35;100296.58;1757766;79;21004;-69
2021/09/21 02:18:52;;;;;;;;;;;;;;;7.94;81.11;100303.97;1766370;79;21026;-69
2021/09/21 02:21:23;;;;;;;3.60;2.65;;;;;;;7.92;81.54;100297.55;1767792;79;20186;-69
2021/09/21 02:23:54;;;;;;;4.80;2.47;;;;;;;7.90;81.58;100299.67;1780549;79;21112;-70
2021/09/21 02:26:24;;;;;;;4.55;2.90;;;;;;;7.89;81.39;100303.36;1802254;78;21003;-70
2021/09/21 02:28:53;;;;;;;4.62;2.33;;;;;;;7.88;81.55;100297.77;1797459;78;21199;-70
2021/09/21 02:31:28;;;;;;;3.52;2.22;;;;;;;7.89;81.72;100303.36;1794038;79;21037;-70
2021/09/21 02:34:05;;;;;;;;;;;;;;;7.93;81.64;100302.34;1768975;79;21042;-70
2021/09/21 02:36:41;;;;;;;3.77;2.62;;;;;;;7.94;81.67;100295.99;1795301;78;20218;-70
2021/09/21 02:39:18;;;;;;;4.47;2.52;;;;;;;7.95;82.16;100304.23;1789003;78;21143;-70
2021/09/21 02:41:55;;;;;;;4.17;2.85;;;;;;;7.92;82.45;100312.70;1793128;78;21022;-70
2021/09/21 02:44:24;;;;;;;5.00;2.75;;;;;;;7.87;82.70;100309.47;1797558;78;21026;-69
2021/09/21 02:46:58;;;;;;;4.08;2.55;;;;;;;7.84;82.95;100320.59;1790738;78;21029;-69
2021/09/21 02:49:30;;;;;;;4.17;2.60;;;;;;;7.80;82.90;100318.14;1773176;79;20947;-69
2021/09/21 02:52:05;;;;;;;5.05;2.50;;;;;;;7.77;82.99;100319.16;1779022;79;21278;-69
2021/09/21 02:54:37;;;;;;;5.65;2.72;;;;;;;7.68;83.17;100319.55;1762646;79;21556;-70
2021/09/21 02:57:09;;;;;;;3.60;2.33;;;;;;;7.68;83.42;100319.55;1766770;81;21085;-69
2021/09/21 02:59:38;;;;;;;4.00;2.50;;;;;;;7.67;83.41;100315.30;1763365;80;21085;-70
2021/09/21 03:02:10;;;;;;;5.30;2.25;;;;;;;7.65;83.35;100313.39;1766750;81;21029;-69
2021/09/21 03:04:55;;;;;;;3.37;2.42;;;;;;;7.67;83.51;100314.50;1775452;79;21542;-69
2021/09/21 03:07:32;;;;;;;4.35;2.30;;;;;;;7.70;83.72;100313.98;1766551;81;21145;-69
2021/09/21 03:10:11;;;;;;;5.80;2.50;;;;;;;7.70;83.62;100321.45;1784469;79;21496;-68
2021/09/21 03:18:29;;;;;;;3.40;2.25;;;;;;;7.69;83.04;100318.50;1773119;79;20994;-69
2021/09/21 03:20:57;;;;;;;3.67;2.20;;;;;;;7.74;83.08;100324.44;1779886;78;21034;-68
2021/09/21 03:23:26;;;;;;;4.78;2.40;;;;;;;7.78;83.07;100320.23;1786752;78;20951;-69
2021/09/21 03:25:54;;;;;;;3.85;2.20;;;;;;;7.78;82.82;100334.86;1793911;78;21550;-69
2021/09/21 03:28:23;;;;;;;4.92;2.72;;;;;;;7.75;82.65;100330.82;1780848;78;21443;-69
2021/09/21 03:30:49;;;;;;;3.00;2.00;;;;;;;7.69;82.16;100327.00;1779345;79;21748;-69
2021/09/21 03:33:18;;;;;;;3.58;2.00;;;;;;;7.67;82.26;100324.60;1790824;79;20958;-69
2021/09/21 03:35:45;;;;;;;3.50;2.08;;;;;;;7.62;81.90;100328.50;1793866;79;21022;-69
2021/09/21 03:38:12;;;;;;;4.42;2.08;;;;;;;7.60;81.89;100323.97;1755220;81;21071;-70
2021/09/21 03:40:39;;;;;;;4.53;2.33;;;;;;;7.60;82.11;100322.64;1746760;79;21075;-69
2021/09/21 03:43:06;;;;;;;4.70;2.30;;;;;;;7.59;82.48;100334.30;1768016;81;21119;-69
2021/09/21 03:45:34;;;;;;;3.52;2.17;;;;;;;7.59;82.96;100323.66;1758043;81;20992;-69
2021/09/21 03:48:01;;;;;;;3.70;2.20;;;;;;;7.59;83.09;100324.19;1736254;80;21546;-69
2021/09/21 03:50:28;;;;;;;5.03;2.50;;;;;;;7.54;83.38;100327.59;1778497;79;21073;-69
2021/09/21 03:52:55;;;;;;;3.27;2.00;;;;;;;7.52;83.61;100327.81;1799706;78;21034;-69
2021/09/21 03:55:23;;;;;;;2.67;1.80;;;;;;;7.54;83.93;100326.27;1797843;78;22151;-69
2021/09/21 03:57:51;;;;;;;3.72;2.12;;;;;;;7.52;83.79;100322.50;1795804;79;20955;-69
2021/09/21 04:00:18;;;;;;;3.22;2.10;;;;;;;7.53;83.85;100316.66;1767046;81;21496;-69
2021/09/21 04:02:45;;;;;;;3.33;1.75;;;;;;;7.51;83.84;100326.74;1757846;81;21044;-70
2021/09/21 04:05:12;;;;;;;3.00;1.98;;;;;;;7.51;84.09;100317.44;1769155;79;21037;-70
2021/09/21 04:07:39;;;;;;;3.12;1.90;;;;;;;7.52;83.78;100325.69;1796293;79;21468;-70
2021/09/21 04:10:09;;;;;;;2.67;1.75;;;;;;;7.53;83.91;100312.67;1794534;78;21167;-70
2021/09/21 04:12:35;;;;;;;5.40;2.10;;;;;;;7.55;83.74;100327.06;1796312;79;21223;-70
2021/09/21 04:15:05;;;;;;;3.70;1.77;;;;;;;7.54;83.38;100330.78;1766167;81;20973;-69
2021/09/21 04:17:31;;;;;;;5.78;2.08;;;;;;;7.53;83.11;100323.30;1737617;81;21083;-69
2021/09/21 04:19:58;;;;;;;3.67;2.00;;;;;;;7.55;83.21;100329.19;1765163;79;21955;-69
2021/09/21 04:22:27;;;;;;;3.17;1.70;;;;;;;7.57;83.24;100324.95;1798809;78;21081;-69
2021/09/21 04:24:56;;;;;;;3.05;1.80;;;;;;;7.60;83.07;100334.59;1796013;79;21116;-69
2021/09/21 04:27:23;;;;;;;3.42;1.80;;;;;;;7.57;82.43;100334.25;1796608;79;21019;-69
2021/09/21 04:29:53;;;;;;;3.60;1.80;;;;;;;7.55;82.16;100331.05;1775631;79;21054;-69
2021/09/21 04:32:19;;;;;;;2.62;1.77;;;;;;;7.50;82.02;100335.74;1801337;78;21937;-69
2021/09/21 04:34:49;;;;;;;4.83;1.90;;;;;;;7.49;82.25;100326.97;1794368;78;21486;-70
2021/09/21 04:37:15;;;;;;;3.25;1.95;;;;;;;7.51;82.16;100323.56;1792223;78;21033;-70
2021/09/21 04:39:42;;;;;;;3.47;1.80;;;;;;;7.52;81.99;100333.66;1790693;78;21525;-69
2021/09/21 04:42:10;;;;;;;2.92;1.72;;;;;;;7.50;82.19;100333.09;1797754;78;21428;-70
2021/09/21 04:44:37;;;;;;;3.58;1.62;;;;;;;7.51;82.21;100332.86;1788907;79;21415;-69
2021/09/21 04:47:08;;;;;;;3.62;1.70;;;;;;;7.49;82.02;100329.63;1764525;79;21481;-70
2021/09/21 04:49:36;;;;;;;5.80;1.80;;;;;;;7.45;82.01;100333.82;1761646;79;21079;-70
2021/09/21 04:52:03;;;;;;;3.47;1.75;;;;;;;7.46;82.01;100331.97;1791125;78;21252;-69
2021/09/21 04:54:30;;;;;;;2.90;1.70;;;;;;;7.46;82.02;100342.59;1804837;78;21050;-70
2021/09/21 04:56:59;;;;;;;2.85;1.60;;;;;;;7.45;81.90;100337.80;1812621;78;21474;-69
2021/09/21 04:59:27;;;;;;;3.72;1.80;;;;;;;7.40;82.05;100331.59;1778422;79;21068;-69
2021/09/21 05:01:54;;;;;;;3.25;1.87;;;;;;;7.40;82.28;100326.28;1793345;78;21431;-69
2021/09/21 05:04:20;;;;;;;3.47;1.92;;;;;;;7.40;82.59;100324.95;1798306;78;21074;-70
2021/09/21 05:06:47;;;;;;;3.75;1.70;;;;;;;7.42;82.42;100336.16;1794781;79;20987;-70
2021/09/21 05:09:15;;;;;;;2.90;1.80;;;;;;;7.44;82.56;100328.23;1794473;79;21085;-70
2021/09/21 05:11:46;;;;;;;2.95;1.67;;;;;;;7.47;82.57;100326.95;1800193;78;21564;-70
2021/09/21 05:14:14;;;;;;;2.75;1.70;;;;;;;7.50;82.71;100329.09;1793697;79;21060;-70
2021/09/21 05:16:42;;;;;;;2.92;1.87;;;;;;;7.52;82.56;100347.75;1787113;79;21058;-71
2021/09/21 05:19:13;;;;;;;2.77;1.60;;;;;;;7.57;82.32;100331.09;1794454;78;22127;-69
2021/09/21 05:21:42;;;;;;;2.58;1.50;;;;;;;7.59;81.98;100327.66;1785736;79;21538;-69
2021/09/21 05:24:09;;;;;;;3.35;1.60;;;;;;;7.60;81.51;100337.26;1793780;78;20975;-69
2021/09/21 05:26:37;;;;;;;3.83;1.72;;;;;;;7.59;81.39;100346.26;1789909;79;21099;-69
2021/09/21 05:29:05;;;;;;;3.10;1.40;;;;;;;7.61;81.37;100365.97;1781366;79;20956;-69
2021/09/21 05:31:32;;;;;;;3.00;1.75;;;;;;;7.60;81.28;100339.09;1782488;78;21426;-69
2021/09/21 05:34:00;;;;;;;2.83;1.60;;;;;;;7.67;81.38;100329.92;1787843;79;21146;-68
2021/09/21 05:36:27;;;;;;;2.98;1.55;;;;;;;7.78;81.44;100340.17;1765377;81;21033;-68
2021/09/21 05:38:55;;;;;;;3.08;1.60;;;;;;;7.82;81.43;100337.83;1760312;79;21084;-70
2021/09/21 05:41:21;;;;;;;2.10;1.40;;;;;;;7.88;81.07;100331.54;1793380;78;21070;-69
2021/09/21 05:43:49;;;;;;;5.50;1.57;;;;;;;7.90;80.57;100346.73;1803921;78;21089;-69
2021/09/21 05:46:16;;;;;;;3.05;1.50;;;;;;;7.89;80.24;100350.42;1787639;79;21074;-69
2021/09/21 05:48:43;;;;;;;3.10;1.75;;;;;;;7.86;80.32;100332.30;1789086;79;21497;-70
2021/09/21 05:51:09;;;;;;;3.52;1.32;;;;;;;7.83;80.78;100334.94;1793951;79;21043;-70
2021/09/21 05:53:36;;;;;;;2.27;1.40;;;;;;;7.84;80.41;100330.42;1780675;78;21493;-70
2021/09/21 05:56:04;;;;;;;3.42;1.57;;;;;;;7.89;80.38;100326.48;1795959;79;21555;-69
2021/09/21 05:58:31;;;;;;;2.15;1.45;;;;;;;7.96;80.51;100331.11;1784529;78;22044;-69
2021/09/21 06:01:01;;;;;;;2.37;1.47;;;;;;;8.07;80.26;100331.55;1789283;78;21026;-69
2021/09/21 06:03:29;;;;;;;3.55;1.72;;;;;;;8.09;78.90;100341.39;1795151;78;21604;-69
2021/09/21 06:06:02;;;;;;;2.37;1.50;;;;;;;8.01;78.81;100335.71;1794831;78;21539;-69
2021/09/21 06:08:30;;;;;;;2.77;1.60;;;;;;;7.95;79.07;100341.48;1786003;78;21663;-68
2021/09/21 06:10:58;;;;;;;2.30;1.35;;;;;;;7.91;79.39;100324.41;1792753;79;21863;-68
2021/09/21 06:13:31;;;;;;;4.65;1.40;;;;;;;7.93;79.03;100337.74;1794947;78;20998;-69
2021/09/21 06:16:02;;;;;;;3.17;1.55;;;;;;;7.93;78.80;100336.41;1786361;78;21027;-69
2021/09/21 06:18:30;;;;;;;2.50;1.60;;;;;;;8.00;78.96;100326.93;1797296;78;21082;-70
2021/09/21 06:21:02;;;;;;;2.77;1.30;;;;;;;8.11;78.65;100322.55;1798566;78;21100;-70
2021/09/21 06:23:38;;;;;;;2.80;1.30;;;;;;;8.21;78.63;100319.48;1784742;78;21033;-70
2021/09/21 06:26:26;;;;;;;2.37;1.22;;;;;;;8.32;78.27;100334.24;1763223;79;21087;-69
2021/09/21 06:29:01;;;;;;;2.17;1.32;;;;;;;8.44;77.21;100320.33;1728958;79;21081;-69
2021/09/21 06:31:43;;;;;;;4.00;1.40;;;;;;;8.54;76.45;100331.09;1751298;79;20988;-69
2021/09/21 06:34:24;;;;;;;1.70;1.20;;;;;;;8.57;75.85;100332.45;1795381;79;21089;-70
2021/09/21 06:37:14;;;;;;;2.33;1.20;;;;;;;8.58;75.49;100330.86;1787510;78;21521;-70
2021/09/21 06:39:48;;;;;;;2.10;1.20;;;;;;;8.57;75.03;100344.44;1786542;78;21541;-69
2021/09/21 06:42:35;;;;;;;1.52;1.07;;;;;;;8.44;75.36;100330.44;1793859;78;21033;-69
2021/09/21 06:45:11;;;;;;;1.95;0.90;;;;;;;8.33;75.50;100338.00;1795343;78;21006;-69
2021/09/21 06:48:11;;;;;;;1.55;0.90;;;;;;;8.29;76.09;100337.39;1790155;78;37255;-69
2021/09/21 06:51:05;;;;;;;1.92;0.90;;;;;;;8.22;76.54;100342.90;1791858;79;21100;-69
2021/09/21 06:53:43;;;;;;;2.65;1.10;;;;;;;8.11;77.10;100357.12;1783328;79;20967;-69
2021/09/21 06:56:26;;;;;;;2.72;1.07;;;;;;;8.01;77.78;100353.80;1788507;78;21046;-70
2021/09/21 06:59:17;;;;;;;1.98;1.07;;;;;;;8.03;78.20;100354.87;1788842;79;21078;-69
2021/09/21 07:02:11;;;;;;;1.25;0.90;;;;;;;8.07;78.39;100368.78;1787563;78;21549;-69
2021/09/21 07:05:02;;;;;;;1.95;1.10;;;;;;;8.17;78.31;100364.93;1790710;78;21181;-70
2021/09/21 07:07:51;;;;;;;2.67;1.10;;;;;;;8.28;78.34;100357.88;1792498;78;21628;-70
2021/09/21 07:10:32;;;;;;;1.90;1.07;;;;;;;8.37;77.69;100371.05;1783654;79;21003;-70
2021/09/21 07:13:14;;;;;;;2.30;1.20;;;;;;;8.38;77.35;100353.25;1792773;79;20995;-70
2021/09/21 07:15:54;;;;;;;3.40;1.57;;;;;;;8.40;77.08;100362.60;1779612;79;21077;-69
2021/09/21 07:18:35;;;;;;;2.58;1.47;;;;;;;8.44;77.28;100364.24;1788273;79;21849;-71
2021/09/21 07:21:17;;;;;;;2.52;1.30;;;;;;;8.50;77.22;100373.91;1757572;81;20981;-70
2021/09/21 07:23:58;;;;;;;;;;;;;;;8.54;76.66;100372.34;1739236;82;21113;-71
2021/09/21 07:26:39;;;;;;;2.02;1.37;;;;;;;8.57;76.11;100372.39;1720204;81;20180;-69
2021/09/21 07:29:19;;;;;;;4.90;1.65;;;;;;;8.56;75.21;100371.59;1796585;79;21015;-70
2021/09/21 07:32:01;;;;;;;;;;;;;;;8.57;75.18;100373.72;1787381;79;21085;-69
2021/09/21 07:34:43;;;;;;;3.47;1.27;;;;;;;8.52;74.78;100370.98;1793708;79;20199;-70
2021/09/21 07:37:24;;;;;;;3.12;1.60;;;;;;;8.49;74.98;100370.14;1792326;78;21025;-70
2021/09/21 07:40:08;;;;;;;2.58;1.40;;;;;;;8.44;74.74;100372.22;1751095;79;21049;-70
2021/09/21 07:42:48;;;;;;;2.02;1.00;;;;;;;8.49;74.68;100368.81;1755557;81;21029;-69
2021/09/21 07:45:29;;;;;;;3.35;1.20;;;;;;;8.52;74.44;100374.44;1791533;78;21129;-71
2021/09/21 07:48:17;;;;;;;1.60;0.90;;;;;;;8.50;74.42;100376.56;1791626;78;21089;-69
2021/09/21 07:50:56;;;;;;;1.55;0.90;;;;;;;8.50;74.36;100374.44;1790835;78;21010;-70
2021/09/21 07:53:36;;;;;;;1.90;0.90;;;;;;;8.54;74.36;100390.98;1793111;78;21529;-69
2021/09/21 07:56:16;;;;;;;2.95;1.10;;;;;;;8.59;74.05;100369.77;1789397;79;21026;-71
2021/09/21 07:58:58;;;;;;;1.40;0.90;;;;;;;8.59;73.56;100384.41;1787561;79;21890;-70
2021/09/21 08:01:40;;;;;;;2.47;1.07;;;;;;;8.61;73.33;100371.63;1791788;78;20946;-70
2021/09/21 08:04:22;;;;;;;1.70;0.90;;;;;;;8.67;73.46;100367.18;1786193;78;21095;-70
2021/09/21 08:20:39;;;;;;;2.70;1.02;;;;;;;8.60;72.81;100379.34;1782836;78;21039;-70
2021/09/21 08:23:26;;;;;;;2.45;1.17;;;;;;;8.55;72.65;100372.62;1778418;78;21087;-69
2021/09/21 08:25:58;;;;;;;2.92;1.00;;;;;;;8.51;72.43;100378.70;1790096;78;21405;-70
2021/09/21 08:28:45;;;;;;;3.10;1.00;;;;;;;8.45;72.42;100387.94;1783864;78;21910;-69
2021/09/21 08:31:19;;;;;;;1.60;0.88;;;;;;;8.45;72.32;100376.48;1775995;79;21042;-69
2021/09/21 08:34:06;;;;;;;1.75;0.90;;;;;;;8.48;72.47;100369.34;1790359;78;21098;-69
2021/09/21 08:56:46;;;;;;;1.92;1.00;;;;;;;8.59;72.72;100386.27;1784537;79;21090;-69
2021/09/21 08:59:36;;;;;;;3.80;1.10;;;;;;;8.62;73.39;100379.91;1797167;79;20980;-71
2021/09/21 09:02:06;;;;;;;1.67;0.88;;;;;;;8.61;73.18;100383.61;1783858;78;20939;-71
2021/09/21 09:04:33;;;;;;;1.55;0.90;;;;;;;8.60;72.37;100386.53;1789657;80;21066;-69
2021/09/21 09:07:01;;;;;;;2.10;0.93;;;;;;;8.50;72.31;100387.22;1803672;79;20980;-71
2021/09/21 09:09:34;;;;;;;1.80;0.93;;;;;;;8.50;72.64;100386.41;1816371;78;20947;-70
2021/09/21 09:12:06;;;;;;;3.27;1.07;;;;;;;8.54;72.89;100399.50;1821995;77;21113;-70
2021/09/21 09:14:35;;;;;;;4.70;1.10;;;;;;;8.60;73.10;100391.86;1818716;77;26720;-72
2021/09/21 09:17:13;;;;;;;2.02;1.00;;;;;;;8.63;72.93;100393.50;1825769;78;21551;-70
2021/09/21 09:19:43;;;;;;;2.50;0.90;;;;;;;8.66;73.04;100397.53;1822051;77;20956;-69
2021/09/21 09:22:15;;;;;;;1.55;0.65;;;;;;;8.71;72.57;100400.23;1803592;78;21032;-71
2021/09/21 09:25:00;;;;;;;1.82;1.05;;;;;;;8.73;72.43;100403.47;1820399;77;21220;-69
2021/09/21 09:27:44;;;;;;;1.52;0.93;;;;;;;8.77;71.89;100405.11;1790362;78;21041;-70
2021/09/21 09:30:19;;;;;;;1.35;0.80;;;;;;;8.82;71.30;100401.19;1798965;79;21562;-70
2021/09/21 09:32:49;;;;;;;2.45;0.90;;;;;;;8.84;71.15;100403.05;1797586;78;21082;-70
2021/09/21 09:35:30;;;;;;;2.12;0.93;;;;;;;8.87;71.19;100398.56;1795411;78;21550;-70
2021/09/21 09:37:59;;;;;;;2.70;0.90;;;;;;;8.86;71.17;100401.76;1828168;78;21141;-70
2021/09/21 09:40:28;;;;;;;1.60;0.90;;;;;;;8.89;71.56;100399.93;1828225;77;21498;-70
2021/09/21 09:42:55;;;;;;;1.42;0.90;;;;;;;8.91;71.86;100395.67;1807435;79;21000;-70
2021/09/21 09:45:35;;;;;;;2.70;1.30;;;;;;;8.89;71.78;100409.78;1803356;78;20991;-70
2021/09/21 09:48:03;;;;;;;2.70;1.10;;;;;;;8.82;71.27;100399.85;1814848;78;21034;-70
2021/09/21 09:50:33;;;;;;;2.20;1.40;;;;;;;8.77;71.38;100405.11;1816075;78;21082;-70
2021/09/21 09:53:11;;;;;;;2.90;1.50;;;;;;;8.69;71.50;100407.16;1825167;78;21034;-70
2021/09/21 09:55:46;;;;;;;3.62;1.62;;;;;;;8.62;72.16;100405.21;1827314;77;21106;-70
2021/09/21 09:58:13;;;;;;;2.00;1.15;;;;;;;8.59;72.65;100412.89;1824808;77;21025;-70
2021/09/21 10:00:40;;;;;;;1.92;0.90;;;;;;;8.59;73.21;100410.23;1821304;77;21002;-70
2021/09/21 10:03:08;;;;;;;2.02;1.15;;;;;;;8.64;72.73;100404.95;1811154;78;21202;-70
2021/09/21 10:05:38;;;;;;;2.50;0.98;;;;;;;8.67;72.76;100405.25;1795197;79;21044;-70
2021/09/21 10:08:08;;;;;;;2.45;1.12;;;;;;;8.75;72.50;100396.02;1818947;77;21023;-70
2021/09/21 10:10:39;;;;;;;2.27;1.20;;;;;;;8.77;71.77;100407.77;1790815;79;21045;-70
2021/09/21 10:13:12;;;;;;;2.08;1.12;;;;;;;8.76;71.71;100414.16;1820775;77;21033;-70
2021/09/21 10:15:40;;;;;;;1.75;1.12;;;;;;;8.75;71.64;100412.53;1827912;77;21061;-71
2021/09/21 10:18:20;;;;;;;2.42;1.10;;;;;;;8.76;71.73;100412.30;1826368;77;20991;-71
2021/09/21 10:21:03;;;;;;;1.50;1.00;;;;;;;8.81;71.77;100403.55;1799010;79;26951;-71
2021/09/21 10:23:36;;;;;;;2.30;1.33;;;;;;;8.85;71.13;100411.31;1828366;77;21015;-71
2021/09/21 10:26:14;;;;;;;2.47;1.30;;;;;;;8.90;71.39;100406.05;1819178;76;20999;-70
2021/09/21 10:28:41;;;;;;;2.72;1.40;;;;;;;8.96;71.22;100406.39;1806213;79;21078;-69
2021/09/21 10:31:13;;;;;;;2.67;1.47;;;;;;;9.02;70.98;100416.06;1778360;78;21053;-70
2021/09/21 10:33:40;;;;;;;2.65;1.27;;;;;;;9.10;71.08;100406.80;1818201;78;21067;-69
2021/09/21 10:36:30;;;;;;;1.45;1.10;;;;;;;9.17;70.97;100408.73;1812268;78;21007;-69
2021/09/21 10:39:01;;;;;;;2.63;1.47;;;;;;;9.23;70.84;100408.27;1808671;77;21116;-70
2021/09/21 10:41:29;;;;;;;3.73;2.10;;;;;;;9.23;70.64;100415.73;1812706;78;22037;-70
2021/09/21 10:44:07;;;;;;;3.23;1.40;;;;;;;9.23;70.70;100420.27;1808007;77;21150;-70
2021/09/21 10:46:57;;;;;;;1.72;1.02;;;;;;;9.23;70.49;100408.27;1791816;78;21470;-71
2021/09/21 10:49:40;;;;;;;1.95;1.30;;;;;;;9.19;70.22;100415.97;1814873;77;21010;-70
2021/09/21 10:52:11;;;;;;;2.15;1.15;;;;;;;9.16;70.01;100421.27;1802004;78;21027;-70
2021/09/21 10:54:51;;;;;;;1.90;1.20;;;;;;;9.12;70.30;100408.17;1818238;77;21046;-70
2021/09/21 10:57:31;;;;;;;2.55;1.10;;;;;;;9.12;70.55;100413.50;1817062;77;21350;-70
2021/09/21 11:00:05;;;;;;;2.37;1.32;;;;;;;9.09;70.34;100417.99;1828639;77;21438;-71
2021/09/21 11:02:39;;;;;;;1.95;1.10;;;;;;;9.03;70.70;100420.32;1817011;78;21023;-70
2021/09/21 11:05:09;;;;;;;1.77;1.00;;;;;;;8.99;70.97;100421.08;1812007;77;21084;-70
2021/09/21 11:07:38;;;;;;;2.05;1.00;;;;;;;8.92;70.82;100424.73;1812038;77;21067;-71
2021/09/21 11:10:07;;;;;;;1.90;1.20;;;;;;;8.89;71.04;100421.77;1815589;77;21085;-68
2021/09/21 11:12:35;;;;;;;2.97;1.10;;;;;;;8.91;71.44;100416.98;1820643;76;21948;-69
2021/09/21 11:15:09;;;;;;;2.92;1.30;;;;;;;8.94;71.38;100427.14;1830954;77;21767;-70
2021/09/21 11:17:38;;;;;;;1.77;1.10;;;;;;;8.91;70.79;100420.97;1831019;76;21026;-69
2021/09/21 11:20:09;;;;;;;2.58;1.20;;;;;;;8.91;71.06;100414.31;1812015;77;21057;-70
2021/09/21 11:22:37;;;;;;;2.27;1.17;;;;;;;8.95;71.32;100433.27;1821420;76;21114;-69
2021/09/21 11:25:10;;;;;;;3.27;1.20;;;;;;;8.94;70.97;100421.81;1802810;79;22008;-70
2021/09/21 11:27:41;;;;;;;2.27;1.10;;;;;;;8.97;71.05;100431.97;1802735;77;20988;-70
2021/09/21 11:30:14;;;;;;;1.93;1.10;;;;;;;9.03;70.85;100429.64;1813326;78;21040;-70
2021/09/21 11:32:44;;;;;;;3.85;1.25;;;;;;;9.06;71.14;100429.15;1810697;77;21776;-70
2021/09/21 11:35:16;;;;;;;1.70;1.05;;;;;;;9.08;71.19;100436.38;1816950;77;21727;-72
2021/09/21 11:37:50;;;;;;;;;;;;;;;9.07;70.16;100422.75;1817754;77;21927;-70
2021/09/21 11:40:32;;;;;;;2.27;1.30;;;;;;;9.01;70.51;100425.08;1822220;77;20125;-70
2021/09/21 11:42:59;;;;;;;1.67;1.00;;;;;;;8.99;71.04;100439.73;1807661;79;21019;-69
2021/09/21 11:45:27;;;;;;;1.80;1.00;;;;;;;8.99;70.72;100435.73;1791533;78;21432;-69
2021/09/21 11:47:53;;;;;;;1.70;1.10;;;;;;;8.97;70.34;100447.95;1785206;79;21522;-69
2021/09/21 11:50:28;;;;;;;1.72;1.10;;;;;;;8.99;70.42;100427.21;1784548;78;20999;-70
2021/09/21 11:53:02;;;;;;;4.37;1.00;;;;;;;9.03;70.45;100444.83;1791925;79;21533;-70
2021/09/21 11:55:32;;;;;;;1.50;0.90;;;;;;;9.11;70.42;100431.05;1825404;77;21062;-70
2021/09/21 11:57:59;;;;;;;1.92;1.10;;;;;;;9.19;70.43;100439.15;1817540;77;21139;-69
2021/09/21 12:00:29;;;;;;;1.98;1.10;;;;;;;9.25;70.62;100439.48;1802243;78;21057;-70
2021/09/21 12:03:01;;;;;;;2.67;1.10;;;;;;;9.24;69.66;100450.64;1802148;78;22070;-70
2021/09/21 12:05:30;;;;;;;2.72;1.07;;;;;;;9.17;70.07;100447.37;1789957;78;21030;-70
2021/09/21 12:08:01;;;;;;;1.47;0.93;;;;;;;9.12;70.14;100440.67;1794830;78;21014;-70
2021/09/21 12:10:30;;;;;;;1.75;1.00;;;;;;;9.06;70.60;100447.00;1817582;77;21096;-70
2021/09/21 12:13:16;;;;;;;1.62;0.90;;;;;;;9.03;70.57;100445.62;1827392;76;20969;-69
2021/09/21 12:15:49;;;;;;;1.75;1.12;;;;;;;9.02;71.17;100448.02;1791432;78;21030;-70
2021/09/21 12:18:17;;;;;;;2.67;1.07;;;;;;;9.04;71.34;100445.90;1794623;78;21034;-70
2021/09/21 12:21:01;;;;;;;1.83;1.00;;;;;;;9.06;70.99;100457.13;1817400;77;21019;-69
2021/09/21 12:23:30;;;;;;;;;;;;;;;9.09;70.60;100459.30;1828642;77;21280;-69
2021/09/21 12:25:59;;;;;;;1.70;1.15;;;;;;;9.08;70.90;100457.69;1823514;77;20153;-69
2021/09/21 12:28:31;;;;;;;2.35;1.20;;;;;;;9.10;71.04;100458.23;1827805;77;21082;-69
2021/09/21 12:31:13;;;;;;;2.27;1.23;;;;;;;9.08;71.00;100453.70;1821974;77;21115;-69
2021/09/21 12:33:42;;;;;;;2.27;1.20;;;;;;;9.08;71.37;100447.53;1795391;79;27768;-68
2021/09/21 12:36:29;;;;;;;2.30;1.20;;;;;;;9.09;71.27;100452.63;1817350;77;21111;-70
2021/09/21 12:39:06;;;;;;;1.82;1.10;;;;;;;9.09;71.09;100447.84;1819546;77;21301;-70
2021/09/21 12:41:36;;;;;;;1.87;1.20;;;;;;;9.10;70.86;100456.89;1795819;78;21781;-70
2021/09/21 12:44:08;;;;;;;1.52;1.12;;;;;;;9.14;70.87;100455.87;1790636;79;21494;-69
2021/09/21 12:46:40;;;;;;;2.27;1.20;;;;;;;9.15;70.84;100451.64;1793041;78;21055;-69
2021/09/21 12:49:15;;;;;;;1.87;1.07;;;;;;;9.19;71.07;100457.80;1779559;78;21611;-69